Time;durP1;ratioP1;P1;durP2;ratioP2;P2;SDS_P1;SDS_P2;PMS_P1;PMS_P2;Temp;Humidity;BMP_temperature;BMP_pressure;BME280_temperature;BME280_humidity;BME280_pressure;Samples;Min_cycle;Max_cycle;Signal;HPM_P1;HPM_P2
2023/11/28 00:00:11;;;;;;;1.05;0.95;;;21.90;55.10;;;;;;4954033;28;87958;-9
2023/11/28 00:02:38;;;;;;;1.02;0.73;;;21.90;55.30;;;;;;4948504;28;89953;-7
2023/11/28 00:05:04;;;;;;;1.17;0.85;;;21.90;55.30;;;;;;4951717;28;87810;-7
2023/11/28 00:07:33;;;;;;;1.38;0.80;;;21.90;55.40;;;;;;4951143;28;87389;-7
2023/11/28 00:09:59;;;;;;;1.42;0.90;;;21.90;55.20;;;;;;4953430;28;88264;-6
2023/11/28 00:12:25;;;;;;;2.88;1.23;;;21.80;55.20;;;;;;4957118;28;87116;-6
2023/11/28 00:14:50;;;;;;;1.40;0.85;;;21.80;55.30;;;;;;4952616;28;87923;-8
2023/11/28 00:17:16;;;;;;;1.10;1.00;;;21.80;55.20;;;;;;4951940;28;88230;-8
2023/11/28 00:19:42;;;;;;;1.65;1.10;;;21.80;55.40;;;;;;4951900;28;87816;-6
2023/11/28 00:22:08;;;;;;;1.50;0.98;;;21.80;55.20;;;;;;4952911;28;89337;-5
2023/11/28 00:24:34;;;;;;;0.90;0.80;;;21.80;55.20;;;;;;4952673;28;88035;-6
2023/11/28 00:26:59;;;;;;;1.13;1.00;;;21.80;55.20;;;;;;4952943;28;87491;-8
2023/11/28 00:29:26;;;;;;;1.20;0.90;;;21.70;55.20;;;;;;4932061;28;88735;-7
2023/11/28 00:31:52;;;;;;;2.22;0.98;;;21.70;55.10;;;;;;4951086;28;88980;-7
2023/11/28 00:34:17;;;;;;;1.65;1.13;;;21.70;55.70;;;;;;4950936;28;88236;-8
2023/11/28 00:36:43;;;;;;;0.90;0.82;;;21.70;55.20;;;;;;4952121;28;87585;-8
2023/11/28 00:39:09;;;;;;;2.00;1.02;;;21.70;55.20;;;;;;4953721;28;87421;-7
2023/11/28 00:41:35;;;;;;;1.40;0.80;;;21.60;55.40;;;;;;4952642;28;88936;-8
2023/11/28 00:44:00;;;;;;;1.20;0.90;;;21.60;55.20;;;;;;4932925;28;90248;-5
2023/11/28 00:46:27;;;;;;;2.22;1.00;;;21.60;55.10;;;;;;4952494;28;88174;-7
2023/11/28 00:48:53;;;;;;;1.45;0.98;;;21.60;55.40;;;;;;4951761;28;87295;-7
2023/11/28 00:51:18;;;;;;;1.00;0.60;;;21.60;55.30;;;;;;4950390;28;88052;-7
2023/11/28 00:53:44;;;;;;;3.10;1.05;;;21.50;55.10;;;;;;4951110;28;88245;-6
2023/11/28 00:56:20;;;;;;;2.33;0.77;;;21.50;55.30;;;;;;4953463;28;87498;-5
2023/11/28 00:58:47;;;;;;;1.52;0.95;;;21.50;55.30;;;;;;4951954;28;87380;-6
2023/11/28 01:01:13;;;;;;;1.02;0.80;;;21.50;55.40;;;;;;4954467;28;89748;-5
2023/11/28 01:03:39;;;;;;;1.23;0.60;;;21.50;55.50;;;;;;4954679;28;89501;-7
2023/11/28 01:06:07;;;;;;;0.82;0.75;;;21.50;55.50;;;;;;4949914;28;88639;-6
2023/11/28 01:08:33;;;;;;;1.13;0.90;;;21.50;55.50;;;;;;4952297;28;87358;-6
2023/11/28 01:10:59;;;;;;;1.52;1.10;;;21.50;55.40;;;;;;4952613;28;88166;-10
2023/11/28 01:13:25;;;;;;;2.13;0.88;;;21.40;55.40;;;;;;4954165;28;87479;-7
2023/11/28 01:15:50;;;;;;;1.00;0.90;;;21.40;55.40;;;;;;4957629;28;87576;-7
2023/11/28 01:18:16;;;;;;;1.70;0.70;;;21.40;55.40;;;;;;4953063;28;87659;-7
2023/11/28 01:20:43;;;;;;;1.17;0.90;;;21.40;55.40;;;;;;4951769;28;88032;-6
2023/11/28 01:23:09;;;;;;;1.02;0.90;;;21.40;55.50;;;;;;4934466;28;89164;-8
2023/11/28 01:25:34;;;;;;;0.75;0.65;;;21.30;55.40;;;;;;4959743;28;87689;-5
2023/11/28 01:28:01;;;;;;;1.70;0.82;;;21.30;55.40;;;;;;4956826;28;87831;-8
2023/11/28 01:30:26;;;;;;;1.13;0.88;;;21.30;55.40;;;;;;4932853;28;93675;-6
2023/11/28 01:32:52;;;;;;;1.73;1.10;;;21.30;55.50;;;;;;4954996;28;88783;-7
2023/11/28 01:35:17;;;;;;;0.65;0.65;;;21.30;55.40;;;;;;4952952;28;87852;-9
2023/11/28 01:37:43;;;;;;;2.03;1.08;;;21.30;55.50;;;;;;4936688;28;88198;-8
2023/11/28 01:40:10;;;;;;;0.70;0.60;;;21.30;55.40;;;;;;4954541;28;87494;-9
2023/11/28 01:42:36;;;;;;;1.10;0.82;;;21.30;55.30;;;;;;4954289;28;88568;-9
2023/11/28 01:45:01;;;;;;;1.15;0.88;;;21.30;55.20;;;;;;4952304;28;87668;-6
2023/11/28 01:47:27;;;;;;;1.17;0.93;;;21.20;55.20;;;;;;4956603;28;86754;-7
2023/11/28 01:49:53;;;;;;;1.10;0.88;;;21.20;55.30;;;;;;4951644;28;89383;-7
2023/11/28 01:52:20;;;;;;;0.93;0.90;;;21.30;55.30;;;;;;4953129;28;89443;-8
2023/11/28 01:54:46;;;;;;;0.88;0.70;;;21.20;55.20;;;;;;4954818;28;88516;-7
2023/11/28 01:57:12;;;;;;;1.02;0.70;;;21.20;55.30;;;;;;4955284;28;87545;-8
2023/11/28 01:59:40;;;;;;;1.98;0.90;;;21.20;55.30;;;;;;4952412;28;88963;-6
2023/11/28 02:02:08;;;;;;;1.13;0.70;;;21.20;55.40;;;;;;4954026;28;89395;-7
2023/11/28 02:04:34;;;;;;;2.53;0.85;;;21.20;55.30;;;;;;4952429;28;87554;-8
2023/11/28 02:07:00;;;;;;;1.45;0.70;;;21.10;55.30;;;;;;4955538;28;87259;-7
2023/11/28 02:09:27;;;;;;;1.92;0.80;;;21.20;55.30;;;;;;4952276;28;88680;-7
2023/11/28 02:11:52;;;;;;;0.63;0.63;;;21.10;55.40;;;;;;4955297;28;88213;-6
2023/11/28 02:14:19;;;;;;;1.08;0.98;;;21.10;55.40;;;;;;4940717;28;86999;-6
2023/11/28 02:16:45;;;;;;;0.90;0.70;;;21.10;55.40;;;;;;4953264;28;87915;-6
2023/11/28 02:19:10;;;;;;;1.73;0.70;;;21.10;55.30;;;;;;4957967;28;91247;-7
2023/11/28 02:21:36;;;;;;;0.65;0.60;;;21.10;55.30;;;;;;4953922;28;88689;-5
2023/11/28 02:24:04;;;;;;;1.45;0.70;;;21.10;55.30;;;;;;4953908;28;87457;-5
2023/11/28 02:26:30;;;;;;;0.60;0.60;;;21.10;55.40;;;;;;4954427;28;87525;-6
2023/11/28 02:28:57;;;;;;;1.63;0.82;;;21.10;55.40;;;;;;4952135;28;89416;-7
2023/11/28 02:31:22;;;;;;;0.75;0.68;;;21.00;55.30;;;;;;4939240;28;91392;-6
2023/11/28 02:33:49;;;;;;;1.83;1.00;;;21.00;55.70;;;;;;4953182;28;87433;-7
2023/11/28 02:36:14;;;;;;;1.02;0.70;;;21.00;55.40;;;;;;4954951;28;88239;-6
2023/11/28 02:38:41;;;;;;;1.23;1.13;;;21.00;55.30;;;;;;4952207;28;88125;-6
2023/11/28 02:41:07;;;;;;;0.93;0.60;;;21.00;55.50;;;;;;4952193;28;88163;-7
2023/11/28 02:43:33;;;;;;;0.88;0.70;;;21.00;55.40;;;;;;4954577;28;88584;-6
2023/11/28 02:45:58;;;;;;;0.95;0.80;;;21.00;55.50;;;;;;4952832;28;87358;-7
2023/11/28 02:48:24;;;;;;;0.85;0.73;;;21.00;55.50;;;;;;4953492;28;89159;-6
2023/11/28 02:50:50;;;;;;;1.30;0.77;;;21.00;55.40;;;;;;4950986;28;88102;-8
2023/11/28 02:53:17;;;;;;;1.35;0.80;;;21.00;55.40;;;;;;4952542;28;87523;-7
2023/11/28 02:55:44;;;;;;;1.58;0.60;;;21.00;56.10;;;;;;4933923;28;88002;-4
2023/11/28 02:58:09;;;;;;;1.25;0.80;;;21.00;55.40;;;;;;4957458;28;88144;-7
2023/11/28 03:00:35;;;;;;;1.10;0.90;;;20.90;55.40;;;;;;4951529;28;89509;-7
2023/11/28 03:03:01;;;;;;;1.05;0.80;;;20.90;55.50;;;;;;4952828;28;88295;-8
2023/11/28 03:05:27;;;;;;;1.20;0.85;;;20.90;55.50;;;;;;4952963;28;88228;-6
2023/11/28 03:07:53;;;;;;;1.05;0.80;;;20.90;55.40;;;;;;4951852;28;89631;-7
2023/11/28 03:10:19;;;;;;;0.88;0.57;;;20.90;55.40;;;;;;4935083;28;90430;-7
2023/11/28 03:12:45;;;;;;;0.75;0.70;;;20.90;55.40;;;;;;4955151;28;87676;-7
2023/11/28 03:15:11;;;;;;;0.57;0.57;;;20.80;55.50;;;;;;4953292;28;87512;-7
2023/11/28 03:17:36;;;;;;;1.17;0.63;;;20.80;55.50;;;;;;4951753;28;88268;-6
2023/11/28 03:20:03;;;;;;;0.60;0.60;;;20.80;55.40;;;;;;4953218;28;88326;-6
2023/11/28 03:22:29;;;;;;;0.95;0.70;;;20.80;55.30;;;;;;4952138;28;87453;-6
2023/11/28 03:24:54;;;;;;;0.57;0.50;;;20.80;55.50;;;;;;4953128;28;88401;-8
2023/11/28 03:27:21;;;;;;;1.00;0.88;;;20.80;55.40;;;;;;4953817;28;88213;-7
2023/11/28 03:29:46;;;;;;;0.60;0.60;;;20.80;55.40;;;;;;4959722;28;87794;-8
2023/11/28 03:32:12;;;;;;;0.85;0.70;;;20.80;55.50;;;;;;4953506;28;88682;-6
2023/11/28 03:34:40;;;;;;;1.38;0.70;;;20.80;55.50;;;;;;4951200;28;87226;-7
2023/11/28 03:37:07;;;;;;;0.88;0.52;;;20.80;55.50;;;;;;4957637;28;88310;-8
2023/11/28 03:39:32;;;;;;;1.10;0.60;;;20.80;55.60;;;;;;4951039;28;88634;-8
2023/11/28 03:41:58;;;;;;;0.90;0.70;;;20.80;55.70;;;;;;4952028;28;87489;-6
2023/11/28 03:44:24;;;;;;;0.65;0.52;;;20.80;55.70;;;;;;4954410;28;88328;-8
2023/11/28 03:46:49;;;;;;;0.82;0.70;;;20.70;55.60;;;;;;4951579;28;89100;-7
2023/11/28 03:49:15;;;;;;;0.73;0.70;;;20.70;55.60;;;;;;4954452;28;88162;-9
2023/11/28 03:51:41;;;;;;;0.70;0.60;;;20.70;55.60;;;;;;4951798;28;88162;-8
2023/11/28 03:54:06;;;;;;;1.20;0.60;;;20.70;55.40;;;;;;4951653;28;87079;-7
2023/11/28 03:56:32;;;;;;;0.75;0.60;;;20.70;55.50;;;;;;4952009;28;88831;-6
2023/11/28 03:58:58;;;;;;;1.90;0.70;;;20.70;55.50;;;;;;4952532;28;89134;-5
2023/11/28 04:01:24;;;;;;;0.80;0.70;;;20.70;55.40;;;;;;4956415;28;87187;-6
2023/11/28 04:03:49;;;;;;;0.50;0.50;;;20.70;55.40;;;;;;4931164;28;91878;-6
2023/11/28 04:06:15;;;;;;;1.20;0.80;;;20.70;55.30;;;;;;4950028;28;89438;-6
2023/11/28 04:08:41;;;;;;;0.82;0.68;;;20.70;55.40;;;;;;4950270;28;87777;-8
2023/11/28 04:11:07;;;;;;;0.68;0.60;;;20.60;55.30;;;;;;4951775;28;87873;-7
2023/11/28 04:13:32;;;;;;;0.68;0.68;;;20.60;55.40;;;;;;4953808;28;87865;-6
2023/11/28 04:15:58;;;;;;;0.70;0.70;;;20.60;55.40;;;;;;4952283;28;88381;-8
2023/11/28 04:18:24;;;;;;;0.90;0.60;;;20.60;55.30;;;;;;4955282;28;87817;-5
2023/11/28 04:20:50;;;;;;;1.92;0.90;;;20.60;55.40;;;;;;4954024;28;87953;-6
2023/11/28 04:23:16;;;;;;;0.80;0.77;;;20.60;55.50;;;;;;4955500;28;87416;-7
2023/11/28 04:25:42;;;;;;;1.70;0.88;;;20.60;55.40;;;;;;4953185;28;88653;-8
2023/11/28 04:28:08;;;;;;;1.05;0.65;;;20.60;55.50;;;;;;4953609;28;89859;-20
2023/11/28 04:30:33;;;;;;;0.50;0.50;;;20.60;55.50;;;;;;4952923;28;87698;-8
2023/11/28 04:32:59;;;;;;;0.77;0.60;;;20.60;55.60;;;;;;4952192;28;87795;-5
2023/11/28 04:35:25;;;;;;;1.02;0.60;;;20.50;55.50;;;;;;4952407;28;89814;-8
2023/11/28 04:37:50;;;;;;;0.80;0.60;;;20.60;55.50;;;;;;4953332;28;87143;-10
2023/11/28 04:40:16;;;;;;;0.50;0.50;;;20.50;55.50;;;;;;4952281;28;87497;-8
2023/11/28 04:42:42;;;;;;;0.77;0.60;;;20.50;55.40;;;;;;4950613;28;87131;-7
2023/11/28 04:45:11;;;;;;;0.73;0.63;;;20.50;55.40;;;;;;4952241;28;89161;-7
2023/11/28 04:47:37;;;;;;;0.75;0.63;;;20.50;55.50;;;;;;4953859;28;88668;-8
2023/11/28 04:50:04;;;;;;;0.60;0.60;;;20.50;55.50;;;;;;4954186;28;87220;-8
2023/11/28 04:52:30;;;;;;;1.35;0.70;;;20.50;55.40;;;;;;4957060;28;87674;-8
2023/11/28 04:54:55;;;;;;;0.80;0.50;;;20.50;55.50;;;;;;4954862;28;88253;-7
2023/11/28 04:57:21;;;;;;;0.77;0.70;;;20.50;55.50;;;;;;4956900;28;88195;-7
2023/11/28 04:59:47;;;;;;;0.50;0.50;;;20.50;55.50;;;;;;4956605;28;88137;-7
2023/11/28 05:02:13;;;;;;;0.70;0.60;;;20.40;55.50;;;;;;4957596;28;86906;-9
2023/11/28 05:04:38;;;;;;;0.50;0.50;;;20.50;55.50;;;;;;4957978;28;88249;-5
2023/11/28 05:07:04;;;;;;;0.75;0.70;;;20.40;55.40;;;;;;4956537;28;87965;-6
2023/11/28 05:09:30;;;;;;;1.25;0.70;;;20.40;55.40;;;;;;4952781;28;88250;-7
2023/11/28 05:11:55;;;;;;;0.60;0.52;;;20.40;55.40;;;;;;4952546;28;87689;-8
2023/11/28 05:14:21;;;;;;;0.50;0.50;;;20.40;55.50;;;;;;4960396;28;88092;-8
2023/11/28 05:16:47;;;;;;;0.82;0.65;;;20.40;55.50;;;;;;4957057;28;89214;-5
2023/11/28 05:19:15;;;;;;;0.52;0.52;;;20.40;55.30;;;;;;4957686;28;88673;-7
2023/11/28 05:21:40;;;;;;;0.50;0.50;;;20.40;55.40;;;;;;4955450;28;88285;-8
2023/11/28 05:24:08;;;;;;;0.70;0.50;;;20.40;55.30;;;;;;4955074;28;89010;-7
2023/11/28 05:26:34;;;;;;;0.60;0.60;;;20.40;55.30;;;;;;4960374;28;87859;-8
2023/11/28 05:29:00;;;;;;;0.47;0.47;;;20.40;55.40;;;;;;4957226;28;87596;-8
2023/11/28 05:31:26;;;;;;;1.20;0.75;;;20.40;55.40;;;;;;4954464;28;87389;-6
2023/11/28 05:33:51;;;;;;;0.77;0.50;;;20.40;55.40;;;;;;4953449;28;94265;-5
2023/11/28 05:36:17;;;;;;;0.55;0.55;;;20.40;55.40;;;;;;4956116;28;89087;-9
2023/11/28 05:38:43;;;;;;;0.52;0.50;;;20.30;55.40;;;;;;4958060;28;87890;-6
2023/11/28 05:41:09;;;;;;;0.88;0.65;;;20.30;55.30;;;;;;4952893;28;87428;-6
2023/11/28 05:43:35;;;;;;;1.50;0.60;;;20.30;55.40;;;;;;4954582;28;89329;-5
2023/11/28 05:46:01;;;;;;;0.45;0.45;;;20.30;55.40;;;;;;4955004;28;87644;-5
2023/11/28 05:48:26;;;;;;;0.43;0.43;;;20.30;55.40;;;;;;4957906;28;87462;-8
2023/11/28 05:50:53;;;;;;;1.60;0.60;;;20.30;55.40;;;;;;4950634;28;88040;-6
2023/11/28 05:53:19;;;;;;;0.82;0.60;;;20.30;55.30;;;;;;4951543;28;87799;-7
2023/11/28 05:55:48;;;;;;;0.80;0.80;;;20.30;55.30;;;;;;4956330;28;89567;-5
2023/11/28 05:58:14;;;;;;;0.60;0.60;;;20.30;55.50;;;;;;4940343;28;88249;-6
2023/11/28 06:00:40;;;;;;;1.00;0.50;;;20.30;55.40;;;;;;4955873;28;88290;-6
2023/11/28 06:03:06;;;;;;;0.70;0.57;;;20.30;55.50;;;;;;4954820;28;87484;-6
2023/11/28 06:05:32;;;;;;;0.85;0.60;;;20.30;55.40;;;;;;4954905;28;88372;-6
2023/11/28 06:07:58;;;;;;;0.47;0.47;;;20.30;55.40;;;;;;4952961;28;87648;-10
2023/11/28 06:10:26;;;;;;;0.52;0.50;;;20.30;55.50;;;;;;4955070;28;87183;-8
2023/11/28 06:12:53;;;;;;;0.52;0.45;;;20.20;55.50;;;;;;4956074;28;92594;-9
2023/11/28 06:15:18;;;;;;;0.63;0.60;;;20.20;55.50;;;;;;4953455;28;89280;-7
2023/11/28 06:17:44;;;;;;;2.15;0.60;;;20.20;55.50;;;;;;4956664;28;87456;-4
2023/11/28 06:20:11;;;;;;;0.60;0.60;;;20.20;55.60;;;;;;4952232;28;87944;-5
2023/11/28 06:22:36;;;;;;;0.77;0.73;;;20.20;55.50;;;;;;4951757;28;89069;-7
2023/11/28 06:25:03;;;;;;;0.65;0.50;;;20.20;55.50;;;;;;4953676;28;89606;-7
2023/11/28 06:27:28;;;;;;;0.70;0.60;;;20.20;55.40;;;;;;4951938;28;87448;-7
2023/11/28 06:29:54;;;;;;;0.60;0.60;;;20.20;55.40;;;;;;4952493;28;88080;-9
2023/11/28 06:32:20;;;;;;;0.68;0.60;;;20.20;55.30;;;;;;4953039;28;88421;-7
2023/11/28 06:34:48;;;;;;;1.02;0.70;;;20.20;55.40;;;;;;4952801;28;87535;-7
2023/11/28 06:37:13;;;;;;;0.65;0.57;;;20.20;55.40;;;;;;4952996;28;87774;-10
2023/11/28 06:39:39;;;;;;;0.60;0.60;;;20.10;55.30;;;;;;4956140;28;86795;-8
2023/11/28 06:42:08;;;;;;;0.50;0.50;;;20.10;55.30;;;;;;4949534;28;89986;-8
2023/11/28 06:44:34;;;;;;;0.63;0.55;;;20.10;55.40;;;;;;4956498;28;88930;-8
2023/11/28 06:47:00;;;;;;;0.65;0.55;;;20.10;55.30;;;;;;4952684;28;88510;-9
2023/11/28 06:49:26;;;;;;;0.63;0.63;;;20.10;55.30;;;;;;4935752;28;91156;-8
2023/11/28 06:51:52;;;;;;;0.50;0.50;;;20.10;55.30;;;;;;4953787;28;88084;-8
2023/11/28 06:54:18;;;;;;;0.68;0.60;;;20.10;55.30;;;;;;4955430;28;87704;-8
2023/11/28 06:56:43;;;;;;;0.70;0.60;;;20.10;55.30;;;;;;4954560;28;87673;-7
2023/11/28 06:59:10;;;;;;;0.60;0.57;;;20.10;55.20;;;;;;4951047;28;87471;-10
2023/11/28 07:01:39;;;;;;;0.40;0.40;;;20.10;55.30;;;;;;4952805;28;87958;-7
2023/11/28 07:04:06;;;;;;;0.40;0.40;;;20.10;55.30;;;;;;4952287;28;89499;-7
2023/11/28 07:06:31;;;;;;;0.52;0.50;;;20.10;55.30;;;;;;4952465;28;87695;-8
2023/11/28 07:08:57;;;;;;;0.55;0.55;;;20.00;55.20;;;;;;4951802;28;88361;-8
2023/11/28 07:11:23;;;;;;;0.70;0.70;;;20.00;55.90;;;;;;4933368;28;92310;-9
2023/11/28 07:13:50;;;;;;;0.60;0.60;;;20.10;55.40;;;;;;4934046;28;88565;-8
2023/11/28 07:16:17;;;;;;;0.52;0.52;;;20.00;55.30;;;;;;4954515;28;87224;-6
2023/11/28 07:18:43;;;;;;;0.80;0.80;;;20.00;55.20;;;;;;4956547;28;87254;-9
2023/11/28 07:21:09;;;;;;;0.57;0.50;;;20.00;55.30;;;;;;4954649;28;88604;-7
2023/11/28 07:23:35;;;;;;;0.45;0.45;;;20.00;55.00;;;;;;4954804;28;89684;-8
2023/11/28 07:26:00;;;;;;;1.38;0.88;;;20.00;55.10;;;;;;4951255;28;87749;-9
2023/11/28 07:28:26;;;;;;;3.85;0.60;;;20.00;55.10;;;;;;4952678;28;86928;-6
2023/11/28 07:30:52;;;;;;;1.35;0.63;;;20.00;55.00;;;;;;4952968;28;88480;-8
2023/11/28 07:33:20;;;;;;;2.67;1.10;;;20.00;53.90;;;;;;4952961;28;87758;-7
2023/11/28 07:35:46;;;;;;;3.70;0.90;;;20.10;54.70;;;;;;4950574;28;88601;-6
2023/11/28 07:38:12;;;;;;;1.20;1.10;;;20.00;54.90;;;;;;4955654;28;87835;-6
2023/11/28 07:40:40;;;;;;;3.05;1.10;;;20.10;55.00;;;;;;4950812;28;87898;-7
2023/11/28 07:43:06;;;;;;;4.28;1.30;;;20.10;55.20;;;;;;4952434;28;87353;-8
2023/11/28 07:45:32;;;;;;;2.63;1.10;;;20.20;55.30;;;;;;4953638;28;87425;-7
2023/11/28 07:47:57;;;;;;;2.33;1.00;;;20.20;55.40;;;;;;4952607;28;88403;-8
2023/11/28 07:50:23;;;;;;;5.25;1.25;;;20.30;55.70;;;;;;4934379;28;91353;-9
2023/11/28 07:52:51;;;;;;;5.32;1.52;;;20.30;55.30;;;;;;4936859;28;90132;-9
2023/11/28 07:55:18;;;;;;;14.33;1.40;;;20.30;54.00;;;;;;4958646;28;87162;-6
2023/11/28 07:57:47;;;;;;;3.30;1.00;;;20.40;54.70;;;;;;4931895;28;88813;-9
2023/11/28 08:00:20;;;;;;;2.15;1.10;;;20.40;55.00;;;;;;4953375;28;90491;-9
2023/11/28 08:02:48;;;;;;;2.25;1.15;;;20.50;55.20;;;;;;4948972;28;89705;-7
2023/11/28 08:05:17;;;;;;;3.63;1.00;;;20.50;55.20;;;;;;4934068;28;88091;-9
2023/11/28 08:07:43;;;;;;;2.65;1.00;;;20.50;55.30;;;;;;4951781;28;87601;-8
2023/11/28 08:10:11;;;;;;;2.70;1.23;;;20.60;55.20;;;;;;4954937;28;87966;-8
2023/11/28 08:12:39;;;;;;;1.60;0.90;;;20.60;55.20;;;;;;4938041;28;88438;-6
2023/11/28 08:15:12;;;;;;;3.33;1.50;;;20.60;55.00;;;;;;4953168;28;87716;-9
2023/11/28 08:17:40;;;;;;;2.67;1.02;;;20.60;54.90;;;;;;4955147;28;88707;-8
2023/11/28 08:20:08;;;;;;;3.97;1.10;;;20.70;55.10;;;;;;4931807;28;88734;-9
2023/11/28 08:22:39;;;;;;;2.95;0.77;;;20.70;55.10;;;;;;4941614;28;87910;-10
2023/11/28 08:25:05;;;;;;;2.15;1.00;;;20.70;55.10;;;;;;4937662;28;87979;-6
2023/11/28 08:27:31;;;;;;;2.65;1.08;;;20.70;55.00;;;;;;4953753;28;88328;-9
2023/11/28 08:29:57;;;;;;;3.30;1.00;;;20.60;55.00;;;;;;4953221;28;88187;-8
2023/11/28 08:32:24;;;;;;;3.33;1.25;;;20.60;55.10;;;;;;4957126;28;88178;-10
2023/11/28 08:34:49;;;;;;;10.75;2.35;;;20.70;54.60;;;;;;4956979;28;87627;-10
2023/11/28 08:37:15;;;;;;;5.05;1.67;;;20.70;54.50;;;;;;4957169;28;87003;-6
2023/11/28 08:39:41;;;;;;;13.77;2.25;;;20.70;54.70;;;;;;4954558;28;87949;-7
2023/11/28 08:42:07;;;;;;;6.85;1.50;;;20.70;54.70;;;;;;4957299;28;88074;-6
2023/11/28 08:44:32;;;;;;;7.85;1.75;;;20.70;54.80;;;;;;4953562;28;87368;-8
2023/11/28 08:46:58;;;;;;;7.47;1.65;;;20.80;55.00;;;;;;4955747;28;87794;-8
2023/11/28 08:49:26;;;;;;;7.18;1.83;;;20.80;54.90;;;;;;4951951;28;88870;-9
2023/11/28 08:51:53;;;;;;;4.70;1.70;;;20.80;54.60;;;;;;4935188;28;94493;-8
2023/11/28 08:54:21;;;;;;;8.05;1.90;;;20.80;54.70;;;;;;4939297;28;87599;-8
2023/11/28 08:56:53;;;;;;;5.22;1.85;;;20.80;54.70;;;;;;4956774;28;87821;-7
2023/11/28 08:59:20;;;;;;;8.05;1.80;;;20.90;54.80;;;;;;4956666;28;87909;-9
2023/11/28 09:01:45;;;;;;;6.65;2.28;;;20.90;54.90;;;;;;4955198;28;87956;-6
2023/11/28 09:04:11;;;;;;;4.47;1.80;;;20.90;54.80;;;;;;4957871;28;87449;-7
2023/11/28 09:06:40;;;;;;;5.43;1.85;;;20.90;54.80;;;;;;4955836;28;86552;-7
2023/11/28 09:09:08;;;;;;;5.55;1.67;;;20.90;54.80;;;;;;4959473;28;88191;-8
2023/11/28 09:11:34;;;;;;;8.68;2.17;;;20.90;54.90;;;;;;4956255;28;88235;-9
2023/11/28 09:14:00;;;;;;;5.43;1.92;;;20.80;55.00;;;;;;4954588;28;88415;-9
2023/11/28 09:16:26;;;;;;;5.25;1.80;;;20.80;54.90;;;;;;4940450;28;88567;-7
2023/11/28 09:19:10;;;;;;;5.90;2.00;;;20.80;55.10;;;;;;4956217;28;92003;-8
2023/11/28 09:21:44;;;;;;;6.97;2.00;;;20.80;55.10;;;;;;4925202;28;87746;-9
2023/11/28 09:24:13;;;;;;;9.73;2.03;;;20.80;55.10;;;;;;4954924;28;87446;-9
2023/11/28 09:26:40;;;;;;;5.38;1.52;;;20.80;55.10;;;;;;4934272;28;89278;-7
2023/11/28 09:29:05;;;;;;;6.68;2.15;;;20.90;54.80;;;;;;4956122;28;88181;-8
2023/11/28 09:31:31;;;;;;;5.95;2.00;;;20.90;54.70;;;;;;4938802;28;89265;-7
2023/11/28 09:34:00;;;;;;;5.20;2.08;;;21.00;54.80;;;;;;4956650;28;87817;-10
2023/11/28 09:36:26;;;;;;;10.73;2.37;;;21.00;55.00;;;;;;4955602;28;87477;-9
2023/11/28 09:38:53;;;;;;;4.10;1.60;;;21.00;52.90;;;;;;4954731;28;89446;-9
2023/11/28 09:41:27;;;;;;;6.68;2.17;;;21.00;53.40;;;;;;4957487;28;88681;-8
2023/11/28 09:44:03;;;;;;;9.52;2.45;;;21.00;52.60;;;;;;4951686;28;87908;-10
2023/11/28 09:46:31;;;;;;;8.68;2.63;;;21.10;52.60;;;;;;4910372;28;88755;-6
2023/11/28 09:49:03;;;;;;;5.47;2.22;;;21.10;51.80;;;;;;4941173;28;89649;-9
2023/11/28 09:51:31;;;;;;;6.22;1.80;;;21.00;52.90;;;;;;4956673;28;89591;-8
2023/11/28 09:53:58;;;;;;;6.97;2.30;;;21.10;53.30;;;;;;4955041;28;87706;-6
2023/11/28 09:56:25;;;;;;;9.35;2.75;;;21.10;53.00;;;;;;4948419;28;86866;-7
2023/11/28 09:59:04;;;;;;;9.00;2.67;;;21.10;52.90;;;;;;4944684;28;90070;-9
2023/11/28 10:01:31;;;;;;;6.50;2.33;;;21.00;53.20;;;;;;4950536;28;90042;-8
2023/11/28 10:04:00;;;;;;;6.93;1.90;;;21.00;53.50;;;;;;4933859;28;88175;-8
2023/11/28 10:06:26;;;;;;;6.17;2.00;;;21.00;53.10;;;;;;4952201;28;87495;-9
2023/11/28 10:08:56;;;;;;;6.28;2.30;;;21.00;53.40;;;;;;4952411;28;88073;-7
2023/11/28 10:11:25;;;;;;;6.32;2.15;;;21.00;53.50;;;;;;4952326;28;87509;-8
2023/11/28 10:13:51;;;;;;;6.68;1.85;;;21.00;53.50;;;;;;4953276;28;87316;-9
2023/11/28 10:16:43;;;;;;;7.55;2.05;;;21.10;53.70;;;;;;4936026;28;87247;-5
2023/11/28 10:19:09;;;;;;;5.43;1.88;;;21.10;52.20;;;;;;4934850;28;94071;-6
2023/11/28 10:21:35;;;;;;;13.10;2.20;;;21.10;52.50;;;;;;4953581;28;88468;-6
2023/11/28 10:24:01;;;;;;;5.70;2.00;;;21.10;53.30;;;;;;4952484;28;87483;-8
2023/11/28 10:26:27;;;;;;;6.57;2.50;;;21.10;52.80;;;;;;4954568;28;87800;-8
2023/11/28 10:28:54;;;;;;;4.72;2.08;;;21.10;52.80;;;;;;4950964;28;89274;-20
2023/11/28 10:31:20;;;;;;;7.32;2.35;;;21.00;53.00;;;;;;4951461;28;88749;-8
2023/11/28 10:33:45;;;;;;;6.78;2.10;;;21.10;52.70;;;;;;4938509;28;87660;-8
2023/11/28 10:36:14;;;;;;;5.15;1.88;;;21.10;53.10;;;;;;4949307;28;89016;-9
2023/11/28 10:38:40;;;;;;;5.77;2.00;;;21.10;53.30;;;;;;4950888;28;87904;-8
2023/11/28 10:41:06;;;;;;;4.55;2.10;;;21.10;53.30;;;;;;4951338;28;87802;-7
2023/11/28 10:43:31;;;;;;;9.77;2.55;;;21.10;53.40;;;;;;4935921;28;87736;-7
2023/11/28 10:45:58;;;;;;;8.98;2.95;;;21.10;53.00;;;;;;4951826;28;86861;-8
2023/11/28 10:48:25;;;;;;;4.15;2.03;;;21.10;53.40;;;;;;4932328;28;89512;-9
2023/11/28 10:50:51;;;;;;;4.75;1.65;;;21.10;53.30;;;;;;4953711;28;89575;-9
2023/11/28 10:53:18;;;;;;;6.28;2.05;;;21.10;53.20;;;;;;4955690;28;89209;-9
2023/11/28 10:55:49;;;;;;;7.72;2.35;;;21.10;53.20;;;;;;4950668;28;88634;-8
2023/11/28 10:58:15;;;;;;;5.30;1.67;;;21.10;52.90;;;;;;4953443;28;88492;-7
2023/11/28 11:00:45;;;;;;;4.82;1.77;;;21.10;53.00;;;;;;4955281;28;87703;-6
2023/11/28 11:03:15;;;;;;;;;;;21.10;53.00;;;;;;4933212;28;87359;-9
2023/11/28 11:05:44;;;;;;;6.22;3.63;;;21.10;53.30;;;;;;4954161;28;87636;-8
2023/11/28 11:08:10;;;;;;;5.70;2.83;;;21.10;53.80;;;;;;4932452;28;88036;-9
2023/11/28 11:10:36;;;;;;;7.65;4.15;;;21.10;53.90;;;;;;4949724;28;87847;-7
2023/11/28 11:13:24;;;;;;;5.88;3.90;;;21.10;54.10;;;;;;4953030;28;87865;-10
2023/11/28 11:16:26;;;;;;;8.10;4.75;;;21.10;54.20;;;;;;4951487;28;87541;-8
2023/11/28 11:19:14;;;;;;;10.00;4.90;;;21.20;54.40;;;;;;4950543;28;94191;-9
2023/11/28 11:21:45;;;;;;;6.57;4.47;;;21.10;54.40;;;;;;4951679;28;90048;-9
2023/11/28 11:24:19;;;;;;;6.53;4.40;;;21.20;54.50;;;;;;4949552;28;87557;-7
2023/11/28 11:26:46;;;;;;;9.38;5.03;;;21.20;54.10;;;;;;4950643;28;88761;-8
2023/11/28 14:27:42;;;;;;;4.88;3.15;;;21.40;54.10;;;;;;4978719;22;87510;-88
2023/11/28 14:30:09;;;;;;;7.78;3.30;;;21.40;54.90;;;;;;4967724;28;87907;-87
2023/11/28 14:32:36;;;;;;;11.30;3.63;;;21.40;55.00;;;;;;4968536;28;90456;-87
2023/11/28 14:35:06;;;;;;;8.50;3.20;;;21.40;54.90;;;;;;4984282;28;90946;-87
2023/11/28 14:37:32;;;;;;;6.25;2.90;;;21.40;54.40;;;;;;4966964;28;90676;-85
2023/11/28 14:39:58;;;;;;;5.28;2.40;;;21.40;53.40;;;;;;4967652;28;87527;-87
2023/11/28 14:42:24;;;;;;;7.88;2.80;;;21.30;53.40;;;;;;4968306;28;88109;-87
2023/11/28 14:44:53;;;;;;;7.20;2.50;;;21.30;53.20;;;;;;4965961;28;91960;-85
2023/11/28 14:47:20;;;;;;;8.32;2.80;;;21.40;53.00;;;;;;4982862;28;91307;-87
2023/11/28 14:49:46;;;;;;;4.13;2.35;;;21.40;52.20;;;;;;4983148;28;87666;-91
2023/11/28 14:52:12;;;;;;;7.68;2.30;;;21.40;49.50;;;;;;4968681;28;90194;-88
2023/11/28 14:54:39;;;;;;;2.58;1.38;;;21.40;50.00;;;;;;4962547;28;90804;-91
2023/11/28 14:57:05;;;;;;;6.82;2.05;;;21.30;49.50;;;;;;4968770;28;88730;-88
2023/11/28 14:59:30;;;;;;;8.15;1.90;;;21.40;48.40;;;;;;4967738;28;87392;-89
2023/11/28 15:01:56;;;;;;;3.67;1.60;;;21.40;48.70;;;;;;4951922;28;87242;-88
2023/11/28 15:04:22;;;;;;;5.85;2.40;;;21.30;48.80;;;;;;4953542;28;88616;-89
2023/11/28 15:06:50;;;;;;;5.20;2.90;;;21.30;47.30;;;;;;4936011;28;89855;-89
2023/11/28 15:09:16;;;;;;;5.20;1.98;;;21.30;47.60;;;;;;4950048;28;88585;-90
2023/11/28 15:11:41;;;;;;;3.13;2.10;;;21.30;48.10;;;;;;4952557;28;88717;-90
2023/11/28 15:14:07;;;;;;;6.25;2.20;;;21.30;48.30;;;;;;4985343;28;88087;-90
2023/11/28 15:16:36;;;;;;;4.55;1.90;;;21.30;48.70;;;;;;4964181;28;90095;-90
2023/11/28 15:19:02;;;;;;;5.57;2.10;;;21.30;48.60;;;;;;4970380;28;88017;-88
2023/11/28 15:21:28;;;;;;;4.40;2.08;;;21.30;48.70;;;;;;4970256;28;88648;-90
2023/11/28 15:23:53;;;;;;;2.80;1.50;;;21.40;49.70;;;;;;4972136;28;89397;-91
2023/11/28 15:26:21;;;;;;;4.32;2.05;;;21.40;50.30;;;;;;4992630;28;88349;-93
2023/11/28 15:28:47;;;;;;;8.13;1.80;;;21.40;50.80;;;;;;4973516;28;87533;-91
2023/11/28 15:31:14;;;;;;;3.15;1.77;;;21.40;51.00;;;;;;4974222;28;87924;-89
2023/11/28 15:33:40;;;;;;;3.22;1.98;;;21.40;51.10;;;;;;4972872;28;89203;-90
2023/11/28 15:36:06;;;;;;;3.40;1.80;;;21.40;51.00;;;;;;4991394;28;87628;-89
2023/11/28 15:38:32;;;;;;;4.78;2.00;;;21.50;51.20;;;;;;4990828;28;86996;-93
2023/11/28 15:40:58;;;;;;;6.25;1.88;;;21.40;51.30;;;;;;4978739;28;88059;-89
2023/11/28 15:43:24;;;;;;;4.18;1.92;;;21.40;51.60;;;;;;4960736;28;88167;-90
2023/11/28 15:45:50;;;;;;;4.05;1.70;;;21.50;51.90;;;;;;4966265;28;91320;-88
2023/11/28 15:48:15;;;;;;;3.13;1.77;;;21.40;52.00;;;;;;4988040;28;87083;-85
2023/11/28 15:50:41;;;;;;;2.95;1.73;;;21.40;51.50;;;;;;4969217;28;89559;-88